Time;durP1;ratioP1;P1;durP2;ratioP2;P2;SDS_P1;SDS_P2;PMS_P1;PMS_P2;Temp;Humidity;BMP_temperature;BMP_pressure;BME280_temperature;BME280_humidity;BME280_pressure;Samples;Min_cycle;Max_cycle;Signal;HPM_P1;HPM_P2
2023/08/15 00:01:42;;;;;;;4.25;3.85;;;26.00;74.80;26.90;100519.00;;;;5009095;28;20768;-51
2023/08/15 00:04:08;;;;;;;4.38;3.78;;;26.00;74.90;26.90;100519.00;;;;5008930;28;20647;-51
2023/08/15 00:06:34;;;;;;;4.65;4.18;;;26.00;75.00;26.80;100505.00;;;;5008902;28;20250;-51
2023/08/15 00:09:00;;;;;;;4.72;4.20;;;26.00;75.00;26.60;100501.00;;;;5009210;28;20184;-51
2023/08/15 00:11:25;;;;;;;5.18;4.00;;;26.00;75.10;26.80;100500.00;;;;5008613;28;20199;-51
2023/08/15 00:13:55;;;;;;;4.53;4.13;;;26.00;75.30;26.80;100498.00;;;;5008665;28;20193;-51
2023/08/15 00:16:21;;;;;;;4.68;4.28;;;25.90;75.20;26.80;100436.00;;;;5007358;28;20184;-51
2023/08/15 00:18:47;;;;;;;5.05;4.20;;;26.00;75.40;26.80;100483.00;;;;5008694;28;20191;-52
2023/08/15 00:21:13;;;;;;;5.20;4.57;;;26.00;75.40;26.80;100484.00;;;;5008484;28;20207;-51
2023/08/15 00:23:38;;;;;;;4.90;4.40;;;25.90;75.40;26.70;100482.00;;;;5008722;28;20708;-52
2023/08/15 00:26:04;;;;;;;4.28;3.88;;;25.90;75.40;26.70;100485.00;;;;5008640;28;20641;-52
2023/08/15 00:28:30;;;;;;;4.30;3.70;;;25.90;75.40;26.70;100492.00;;;;5008887;28;20187;-52
2023/08/15 00:30:55;;;;;;;3.95;3.60;;;25.90;75.40;26.70;100482.00;;;;5008236;28;20179;-53
2023/08/15 00:33:21;;;;;;;4.15;3.75;;;25.90;75.40;26.70;100482.00;;;;5008845;28;20187;-53
2023/08/15 00:35:47;;;;;;;5.38;3.55;;;25.90;75.40;26.70;100476.00;;;;5007329;28;20210;-52
2023/08/15 00:38:13;;;;;;;3.70;3.40;;;25.90;75.40;26.70;100476.00;;;;5008510;28;20218;-52
2023/08/15 00:40:41;;;;;;;3.75;3.45;;;25.90;75.40;26.70;100459.00;;;;5008363;28;20661;-52
2023/08/15 00:43:08;;;;;;;3.80;3.30;;;25.80;75.30;26.70;100481.00;;;;5007803;28;20206;-52
2023/08/15 00:45:35;;;;;;;3.70;3.40;;;25.90;75.40;26.70;100474.00;;;;5008328;28;20175;-52
2023/08/15 00:48:01;;;;;;;3.75;3.10;;;25.80;75.30;26.70;100479.00;;;;4974631;28;20562;-52
2023/08/15 00:50:26;;;;;;;4.25;3.85;;;25.80;75.30;26.70;100489.00;;;;5008249;28;20246;-52
2023/08/15 00:52:52;;;;;;;3.78;3.10;;;25.80;75.30;26.70;100496.00;;;;5007010;28;20294;-52
2023/08/15 00:55:18;;;;;;;3.42;3.13;;;25.80;75.30;26.60;100481.00;;;;4990860;28;20187;-52
2023/08/15 00:57:44;;;;;;;3.50;3.28;;;25.80;75.40;26.70;100472.00;;;;5007037;28;20689;-52
2023/08/15 01:00:11;;;;;;;3.63;3.33;;;25.80;75.30;26.60;100476.00;;;;5007981;28;20175;-52
2023/08/15 01:02:38;;;;;;;4.28;3.47;;;25.80;75.40;26.60;100456.00;;;;5008319;28;20222;-52
2023/08/15 01:05:05;;;;;;;4.30;3.33;;;25.80;75.50;26.60;100461.00;;;;4990760;28;20180;-52
2023/08/15 01:07:30;;;;;;;3.70;3.40;;;25.80;75.50;26.60;100461.00;;;;5008021;28;20654;-51
2023/08/15 01:09:56;;;;;;;3.47;3.15;;;25.80;75.50;26.60;100447.00;;;;5007881;28;20207;-52
2023/08/15 01:12:42;;;;;;;4.85;3.40;;;25.80;75.60;26.60;100439.00;;;;5006549;28;20206;-54
2023/08/15 01:15:13;;;;;;;3.38;3.08;;;25.80;75.70;26.60;100435.00;;;;4978697;28;20190;-51
2023/08/15 01:18:30;;;;;;;3.47;3.17;;;25.70;75.70;26.60;100435.00;;;;5006706;28;20277;-52
2023/08/15 01:20:56;;;;;;;3.67;3.25;;;25.70;75.70;26.50;100431.00;;;;5002003;28;20274;-52
2023/08/15 01:23:39;;;;;;;3.80;3.40;;;25.70;75.80;26.50;100433.00;;;;5008013;28;20307;-53
2023/08/15 01:26:05;;;;;;;3.35;3.15;;;25.70;75.80;26.50;100425.00;;;;5007047;28;20183;-53
2023/08/15 01:28:31;;;;;;;3.40;3.10;;;25.70;75.80;26.50;100420.00;;;;5008228;28;20672;-53
2023/08/15 01:31:44;;;;;;;3.90;3.13;;;25.70;75.80;26.50;100416.00;;;;5007754;28;20206;-52
2023/08/15 01:34:17;;;;;;;5.80;3.47;;;25.70;75.80;26.50;100429.00;;;;4966503;28;20279;-52
2023/08/15 01:36:48;;;;;;;4.35;3.20;;;25.70;75.80;26.50;100433.00;;;;5001187;28;20539;-53
2023/08/15 01:39:15;;;;;;;3.45;3.15;;;25.70;75.80;26.50;100445.00;;;;4993427;28;20278;-51
2023/08/15 01:41:41;;;;;;;3.67;3.22;;;25.70;75.80;26.50;100445.00;;;;5011443;28;20219;-51
2023/08/15 01:44:07;;;;;;;3.70;3.40;;;25.70;75.60;26.50;100448.00;;;;5012966;28;20175;-51
2023/08/15 01:46:33;;;;;;;3.38;3.08;;;25.60;75.60;26.50;100453.00;;;;4983896;28;20183;-54
2023/08/15 01:48:59;;;;;;;4.50;3.45;;;25.70;75.60;26.40;100453.00;;;;5010276;28;20179;-51
2023/08/15 01:51:25;;;;;;;4.93;3.38;;;25.70;75.60;26.50;100456.00;;;;5010018;28;20616;-51
2023/08/15 01:53:51;;;;;;;3.90;3.40;;;25.60;75.60;26.50;100471.00;;;;5010130;28;20326;-51
2023/08/15 01:56:17;;;;;;;3.67;3.38;;;25.60;75.40;26.40;100471.00;;;;5011693;28;20241;-51
2023/08/15 01:58:42;;;;;;;3.85;3.40;;;25.70;75.30;26.40;100469.00;;;;5011507;28;20183;-52
2023/08/15 02:01:08;;;;;;;4.05;3.65;;;25.60;75.40;26.40;100449.00;;;;5014484;28;20828;-52
2023/08/15 02:03:34;;;;;;;3.38;3.08;;;25.60;75.50;26.40;100453.00;;;;5011985;28;20230;-51
2023/08/15 02:05:59;;;;;;;3.83;3.30;;;25.60;75.60;26.40;100476.00;;;;5011044;28;20180;-51
2023/08/15 02:08:25;;;;;;;3.53;3.22;;;25.60;75.60;26.40;100486.00;;;;5009250;28;20242;-51
2023/08/15 02:10:51;;;;;;;4.30;3.30;;;25.70;75.70;26.40;100486.00;;;;5010695;28;20203;-53
2023/08/15 02:13:17;;;;;;;3.67;3.38;;;25.60;75.40;26.40;100484.00;;;;5009948;28;20189;-51
2023/08/15 02:15:43;;;;;;;3.75;3.45;;;25.60;75.50;26.30;100486.00;;;;5010817;28;20187;-51
2023/08/15 02:18:10;;;;;;;3.50;3.20;;;25.60;75.60;26.30;100485.00;;;;5011031;28;20226;-53
2023/08/15 02:20:37;;;;;;;3.85;3.20;;;25.60;75.80;26.30;100479.00;;;;5010974;28;20198;-52
2023/08/15 02:23:03;;;;;;;3.65;3.35;;;25.50;75.70;26.30;100483.00;;;;5011126;28;20215;-51
2023/08/15 02:25:28;;;;;;;3.38;3.08;;;25.50;75.80;26.30;100480.00;;;;5011242;28;20582;-52
2023/08/15 02:27:54;;;;;;;3.40;3.20;;;25.50;75.70;26.30;100477.00;;;;5011015;28;20616;-52
2023/08/15 02:30:20;;;;;;;3.75;3.40;;;25.50;75.80;26.30;100480.00;;;;5010818;28;20262;-55
2023/08/15 02:32:46;;;;;;;4.10;3.10;;;25.50;75.80;26.30;100490.00;;;;5010628;28;20230;-53
2023/08/15 02:35:13;;;;;;;3.20;2.90;;;25.50;75.90;26.30;100484.00;;;;5010490;28;20190;-52
2023/08/15 02:37:39;;;;;;;3.45;3.13;;;25.50;76.00;26.30;100490.00;;;;5010418;28;20781;-52
2023/08/15 02:40:08;;;;;;;3.60;3.30;;;25.50;76.00;26.30;100491.00;;;;5005726;28;20542;-52
2023/08/15 02:42:34;;;;;;;4.18;3.38;;;25.50;76.00;26.30;100492.00;;;;5003794;28;20211;-53
2023/08/15 02:44:59;;;;;;;3.63;3.33;;;25.50;76.00;26.30;100482.00;;;;5011445;28;20225;-52
2023/08/15 02:47:25;;;;;;;4.60;3.30;;;25.50;76.10;26.30;100482.00;;;;5010364;28;20179;-60
2023/08/15 02:49:51;;;;;;;3.53;3.22;;;25.50;76.10;26.30;100477.00;;;;5008628;28;20179;-61
2023/08/15 02:52:17;;;;;;;3.30;3.08;;;25.50;76.10;26.30;100485.00;;;;5010389;28;20204;-61
2023/08/15 02:54:43;;;;;;;3.70;2.97;;;25.50;76.00;26.30;100494.00;;;;5010363;28;20670;-62
2023/08/15 02:57:08;;;;;;;3.65;3.35;;;25.50;76.80;26.30;100506.00;;;;5010413;28;20188;-60
2023/08/15 02:59:34;;;;;;;4.10;3.10;;;25.50;76.10;26.30;100509.00;;;;5009806;28;20183;-60
2023/08/15 03:02:00;;;;;;;3.50;3.20;;;25.50;76.00;26.30;100498.00;;;;5010352;28;20255;-61
2023/08/15 03:04:25;;;;;;;3.22;3.03;;;25.50;75.50;26.30;100502.00;;;;5010161;28;20640;-59
2023/08/15 03:06:51;;;;;;;4.38;3.35;;;25.50;75.70;26.30;100487.00;;;;5011334;28;20314;-62
2023/08/15 03:09:17;;;;;;;3.70;3.40;;;25.50;75.70;26.30;100480.00;;;;5010529;28;20254;-62
2023/08/15 03:11:43;;;;;;;4.82;3.42;;;25.40;76.40;26.30;100485.00;;;;5010749;28;20301;-59
2023/08/15 03:14:09;;;;;;;5.45;3.70;;;25.20;77.80;26.40;100491.00;;;;5010972;28;20179;-61
2023/08/15 03:16:35;;;;;;;3.88;3.45;;;25.00;78.80;26.40;100496.00;;;;5011515;28;20190;-62
2023/08/15 03:19:00;;;;;;;3.95;3.60;;;25.20;78.30;26.40;100510.00;;;;5011402;28;20219;-62
2023/08/15 03:21:26;;;;;;;4.30;3.50;;;25.20;78.00;26.40;100527.00;;;;5010609;28;20816;-62
2023/08/15 03:23:52;;;;;;;3.92;3.50;;;25.30;78.00;26.40;100535.00;;;;5011108;28;20215;-62
2023/08/15 03:26:17;;;;;;;5.50;3.58;;;25.30;77.50;26.30;100537.00;;;;5010955;28;20757;-63
2023/08/15 03:28:43;;;;;;;4.70;3.33;;;25.30;76.60;26.30;100536.00;;;;5010785;28;20593;-62
2023/08/15 03:31:09;;;;;;;3.83;3.53;;;25.30;76.20;26.20;100523.00;;;;5009221;28;20203;-62
2023/08/15 03:33:35;;;;;;;5.10;3.50;;;25.30;76.40;26.20;100533.00;;;;5010697;28;20184;-60
2023/08/15 03:36:01;;;;;;;4.28;3.90;;;25.30;77.70;26.20;100513.00;;;;5010728;28;20180;-61
2023/08/15 03:38:27;;;;;;;4.47;4.07;;;25.40;77.40;26.20;100509.00;;;;5010859;28;20556;-61
2023/08/15 03:41:05;;;;;;;5.25;3.92;;;25.30;77.20;26.20;100503.00;;;;5008613;28;20188;-61
2023/08/15 03:43:32;;;;;;;5.00;3.60;;;25.40;77.20;26.20;100496.00;;;;5011331;28;20318;-61
2023/08/15 03:45:58;;;;;;;4.45;3.50;;;25.40;77.30;26.20;100481.00;;;;5010654;28;20405;-61
2023/08/15 03:48:24;;;;;;;4.03;3.70;;;25.40;77.20;26.20;100474.00;;;;5010766;28;20183;-61
2023/08/15 03:50:51;;;;;;;4.15;3.75;;;25.40;77.20;26.20;100498.00;;;;4993014;28;20176;-61
2023/08/15 03:53:17;;;;;;;3.88;3.40;;;25.40;77.10;26.20;100498.00;;;;5010807;28;20180;-62
2023/08/15 03:55:42;;;;;;;4.45;4.05;;;25.30;77.60;26.20;100503.00;;;;5010146;28;20202;-61
2023/08/15 03:58:08;;;;;;;6.20;3.97;;;25.40;78.00;26.20;100494.00;;;;5010054;28;20724;-61
2023/08/15 04:00:34;;;;;;;4.32;3.92;;;25.30;78.10;26.20;100475.00;;;;5008954;28;20271;-61
2023/08/15 04:03:00;;;;;;;4.93;4.22;;;25.30;79.50;26.20;100472.00;;;;5009985;28;20239;-60
2023/08/15 04:05:26;;;;;;;5.60;4.30;;;25.20;79.80;26.20;100468.00;;;;5010130;28;20226;-61
2023/08/15 04:07:51;;;;;;;5.57;4.00;;;25.20;79.50;26.20;100480.00;;;;5012153;28;20214;-62
2023/08/15 04:10:17;;;;;;;4.93;4.00;;;25.20;79.30;26.20;100496.00;;;;5009763;28;20219;-61
2023/08/15 04:12:46;;;;;;;5.38;4.30;;;25.30;78.80;26.20;100524.00;;;;5010035;28;20257;-61
2023/08/15 04:15:12;;;;;;;5.15;4.30;;;25.20;80.10;26.20;100534.00;;;;5008556;28;20262;-60
2023/08/15 04:17:38;;;;;;;4.88;4.18;;;25.10;80.90;26.20;100539.00;;;;5009852;28;20195;-62
2023/08/15 04:20:05;;;;;;;4.70;4.13;;;25.10;80.20;26.20;100557.00;;;;5009446;28;20183;-62
2023/08/15 04:22:31;;;;;;;6.15;4.13;;;25.10;80.20;26.20;100577.00;;;;5009725;28;20211;-61
2023/08/15 04:24:57;;;;;;;4.15;3.78;;;25.10;80.30;26.20;100573.00;;;;5009815;28;20552;-62
2023/08/15 04:27:23;;;;;;;5.25;4.10;;;25.10;80.10;26.20;100590.00;;;;5009724;28;20185;-62
2023/08/15 04:29:48;;;;;;;4.13;3.50;;;25.20;80.40;26.20;100576.00;;;;5007804;28;20191;-61
2023/08/15 04:32:14;;;;;;;4.35;3.75;;;25.20;78.90;26.20;100577.00;;;;5009472;28;20195;-61
2023/08/15 04:34:40;;;;;;;7.63;4.47;;;25.20;78.30;26.20;100587.00;;;;5009428;28;20269;-61
2023/08/15 04:37:05;;;;;;;5.00;4.50;;;25.20;80.50;26.20;100612.00;;;;5008082;28;20245;-61
2023/08/15 04:39:31;;;;;;;5.70;4.57;;;25.10;81.30;26.20;100615.00;;;;5009096;28;20207;-61
2023/08/15 04:41:57;;;;;;;4.20;3.80;;;25.00;82.20;26.20;100616.00;;;;5008986;28;20203;-62
2023/08/15 04:44:23;;;;;;;6.05;4.22;;;25.00;81.70;26.10;100629.00;;;;5010125;28;20180;-63
2023/08/15 04:46:49;;;;;;;4.95;4.20;;;25.00;81.40;26.20;100626.00;;;;5008950;28;20211;-62
2023/08/15 04:49:14;;;;;;;4.45;4.05;;;25.00;80.60;26.10;100629.00;;;;5009494;28;20234;-62
2023/08/15 04:51:40;;;;;;;6.25;4.57;;;25.00;81.70;26.10;100633.00;;;;5008924;28;20195;-61
2023/08/15 04:54:06;;;;;;;5.40;4.53;;;25.00;81.70;26.10;100638.00;;;;5011147;28;20602;-61
2023/08/15 04:56:32;;;;;;;4.57;4.15;;;25.00;82.50;26.10;100633.00;;;;5005372;28;20258;-62
2023/08/15 04:58:57;;;;;;;4.55;4.15;;;25.00;81.40;26.10;100630.00;;;;5008724;28;20695;-62
2023/08/15 05:01:24;;;;;;;4.78;4.05;;;25.00;81.10;26.10;100635.00;;;;5009099;28;20208;-62
2023/08/15 05:03:50;;;;;;;6.35;4.35;;;25.10;80.10;26.10;100617.00;;;;5009236;28;20299;-63
2023/08/15 05:06:16;;;;;;;4.50;4.07;;;25.10;81.40;26.10;100610.00;;;;5009104;28;20651;-63
2023/08/15 05:08:42;;;;;;;5.20;4.15;;;25.00;81.20;26.10;100604.00;;;;5009327;28;20732;-62
2023/08/15 05:11:08;;;;;;;4.28;3.88;;;25.00;80.90;26.10;100595.00;;;;5008669;28;20242;-62
2023/08/15 05:13:34;;;;;;;3.92;3.63;;;25.00;80.30;26.10;100588.00;;;;5010287;28;20234;-63
2023/08/15 05:15:59;;;;;;;4.15;3.75;;;25.00;80.00;26.00;100565.00;;;;5012849;28;20215;-63
2023/08/15 05:18:25;;;;;;;4.47;3.92;;;25.10;80.10;26.00;100563.00;;;;5012645;28;20191;-62
2023/08/15 05:20:51;;;;;;;5.55;4.03;;;25.10;79.50;26.00;100556.00;;;;5012691;28;20183;-61
2023/08/15 05:23:17;;;;;;;4.47;4.10;;;25.10;79.90;26.00;100598.00;;;;5013029;28;20705;-62
2023/08/15 05:25:43;;;;;;;4.20;3.78;;;25.10;81.10;26.00;100604.00;;;;5013052;28;20198;-62
2023/08/15 05:28:10;;;;;;;4.45;4.05;;;25.10;80.10;26.00;100598.00;;;;5012844;28;20194;-62
2023/08/15 05:30:36;;;;;;;3.72;3.42;;;25.10;79.80;26.00;100601.00;;;;5011724;28;20242;-62
2023/08/15 05:33:02;;;;;;;4.13;3.72;;;25.10;79.60;26.00;100603.00;;;;5012817;28;20249;-62
2023/08/15 05:35:28;;;;;;;4.45;3.97;;;25.10;80.10;26.00;100611.00;;;;5012672;28;20210;-62
2023/08/15 05:37:54;;;;;;;5.32;3.92;;;25.10;79.20;26.00;100615.00;;;;5012390;28;20651;-62
2023/08/15 05:40:20;;;;;;;4.32;3.92;;;25.00;80.60;26.10;100626.00;;;;5012533;28;20179;-63
2023/08/15 05:42:46;;;;;;;4.38;4.00;;;25.00;81.10;26.10;100626.00;;;;5012671;28;20203;-62
2023/08/15 05:45:12;;;;;;;4.10;3.80;;;25.00;81.70;26.10;100648.00;;;;5012648;28;20180;-61
2023/08/15 05:47:38;;;;;;;4.75;4.10;;;24.90;81.70;26.00;100648.00;;;;5010952;28;20214;-62
2023/08/15 05:50:04;;;;;;;5.15;4.00;;;24.80;83.20;26.00;100638.00;;;;5011870;28;20179;-61
2023/08/15 05:52:30;;;;;;;4.10;3.78;;;24.70;82.80;26.00;100640.00;;;;5012079;28;20203;-61
2023/08/15 05:54:55;;;;;;;4.63;4.20;;;24.80;82.80;26.00;100652.00;;;;5012233;28;20179;-62
2023/08/15 05:57:22;;;;;;;4.55;4.15;;;24.80;83.10;26.00;100648.00;;;;5011927;28;20204;-62
2023/08/15 05:59:48;;;;;;;5.38;4.20;;;24.70;83.50;25.90;100646.00;;;;5012302;28;20182;-62
2023/08/15 06:02:14;;;;;;;4.85;4.28;;;24.70;83.10;25.90;100657.00;;;;5012573;28;20199;-63
2023/08/15 06:04:40;;;;;;;4.80;3.72;;;24.60;83.30;25.90;100654.00;;;;5012660;28;20167;-61
2023/08/15 06:07:05;;;;;;;4.50;3.72;;;24.70;83.10;25.80;100665.00;;;;5012316;28;20229;-62
2023/08/15 06:09:31;;;;;;;4.47;4.07;;;24.80;81.60;25.80;100668.00;;;;5011406;28;20218;-62
2023/08/15 06:11:57;;;;;;;4.20;3.80;;;24.70;83.50;25.80;100661.00;;;;5011967;28;20195;-62
2023/08/15 06:14:23;;;;;;;4.10;3.70;;;24.80;82.80;25.80;100665.00;;;;5011581;28;20186;-62
2023/08/15 06:16:49;;;;;;;4.10;3.80;;;25.00;82.90;25.80;100684.00;;;;5011987;28;20180;-61
2023/08/15 06:19:14;;;;;;;4.70;4.05;;;24.90;84.40;25.80;100670.00;;;;5011963;28;20183;-62
2023/08/15 06:21:41;;;;;;;4.07;3.63;;;24.70;83.90;25.70;100667.00;;;;5011272;28;20218;-63
2023/08/15 06:24:10;;;;;;;4.03;3.63;;;24.90;82.90;25.70;100666.00;;;;5010506;28;20199;-62
2023/08/15 06:26:36;;;;;;;4.25;3.45;;;24.80;83.20;25.70;100665.00;;;;5011760;28;20258;-61
2023/08/15 06:29:06;;;;;;;5.07;3.80;;;24.90;82.50;25.70;100660.00;;;;5011572;28;20263;-61
2023/08/15 06:31:35;;;;;;;3.85;3.55;;;24.90;82.50;25.70;100673.00;;;;5011489;28;20195;-61
2023/08/15 06:34:01;;;;;;;5.32;3.72;;;24.90;82.80;25.70;100675.00;;;;5011993;28;20197;-61
2023/08/15 06:36:27;;;;;;;4.53;4.13;;;25.00;82.20;25.70;100677.00;;;;5011604;28;20274;-62
2023/08/15 06:38:53;;;;;;;4.50;4.00;;;24.90;82.50;25.70;100683.00;;;;5011814;28;20617;-60
2023/08/15 06:41:18;;;;;;;4.47;4.07;;;24.60;83.70;25.60;100681.00;;;;5011270;28;20299;-62
2023/08/15 06:43:44;;;;;;;3.80;3.50;;;24.70;83.60;25.60;100688.00;;;;5011127;28;20219;-62
2023/08/15 06:46:14;;;;;;;4.10;3.70;;;24.80;82.90;25.60;100687.00;;;;5011061;28;20208;-60
2023/08/15 06:48:40;;;;;;;4.72;3.78;;;24.80;82.40;25.60;100684.00;;;;5011158;28;20206;-61
2023/08/15 06:51:05;;;;;;;5.32;3.78;;;24.80;82.30;25.60;100685.00;;;;5011121;28;20227;-61
2023/08/15 06:53:31;;;;;;;4.68;4.00;;;24.80;82.90;25.60;100688.00;;;;5011478;28;20188;-61
2023/08/15 06:55:57;;;;;;;4.00;3.70;;;24.40;84.70;25.60;100699.00;;;;5011233;28;20195;-61
2023/08/15 06:58:23;;;;;;;4.57;3.72;;;24.20;86.00;25.50;100693.00;;;;5010970;28;20595;-59
2023/08/15 07:00:49;;;;;;;4.80;3.70;;;24.40;85.00;25.50;100688.00;;;;5010301;28;20255;-60
2023/08/15 07:03:18;;;;;;;4.43;4.00;;;24.40;84.50;25.50;100691.00;;;;5011601;28;20234;-60
2023/08/15 07:05:44;;;;;;;4.40;4.00;;;24.60;83.90;25.50;100696.00;;;;4994559;28;20184;-61
2023/08/15 07:08:10;;;;;;;4.55;4.15;;;24.50;84.00;25.50;100690.00;;;;5009949;28;20222;-60
2023/08/15 07:10:36;;;;;;;4.15;3.83;;;24.40;84.50;25.50;100694.00;;;;5009890;28;20195;-61
2023/08/15 07:13:02;;;;;;;4.90;3.55;;;24.50;84.50;25.50;100705.00;;;;5011187;28;20195;-61
2023/08/15 07:15:28;;;;;;;5.07;3.83;;;24.40;84.60;25.50;100695.00;;;;5009731;28;20183;-60
2023/08/15 07:17:54;;;;;;;5.43;4.20;;;24.60;83.70;25.50;100682.00;;;;5010557;28;20632;-61
2023/08/15 07:20:20;;;;;;;5.65;3.70;;;24.60;83.90;25.50;100698.00;;;;5008270;28;20262;-60
2023/08/15 07:22:46;;;;;;;4.18;3.78;;;24.50;84.30;25.50;100701.00;;;;5009309;28;20212;-60
2023/08/15 07:25:12;;;;;;;4.35;3.70;;;24.40;84.60;25.50;100699.00;;;;5005843;28;20221;-60
2023/08/15 07:27:38;;;;;;;3.80;3.40;;;24.40;85.10;25.50;100711.00;;;;5007770;28;20176;-61
2023/08/15 07:30:08;;;;;;;4.55;3.50;;;24.40;84.70;25.40;100691.00;;;;5007678;28;20323;-61
2023/08/15 07:32:37;;;;;;;3.38;3.08;;;24.40;84.10;25.40;100700.00;;;;5008834;28;20736;-60
2023/08/15 07:35:07;;;;;;;4.25;3.28;;;24.60;83.50;25.40;100704.00;;;;5009033;28;20196;-62
2023/08/15 07:37:33;;;;;;;3.65;3.35;;;24.40;83.90;25.40;100700.00;;;;5008830;28;20191;-62
2023/08/15 07:40:09;;;;;;;3.90;3.60;;;24.40;83.80;25.40;100708.00;;;;5004384;28;20215;-62
2023/08/15 07:42:35;;;;;;;3.58;3.20;;;24.40;84.30;25.40;100707.00;;;;5008959;28;20218;-61
2023/08/15 07:45:02;;;;;;;4.50;3.60;;;24.30;84.50;25.40;100706.00;;;;5010287;28;20261;-62
2023/08/15 07:47:28;;;;;;;4.05;3.65;;;24.30;84.50;25.40;100711.00;;;;5008814;28;20258;-62
2023/08/15 07:50:25;;;;;;;4.07;3.15;;;24.40;84.40;25.30;100716.00;;;;5010325;28;20690;-61
2023/08/15 07:52:51;;;;;;;6.20;3.38;;;24.40;83.50;25.30;100719.00;;;;5010301;28;20191;-61
2023/08/15 07:55:17;;;;;;;8.77;3.50;;;24.50;82.90;25.30;100722.00;;;;5010048;28;20183;-60
2023/08/15 07:57:45;;;;;;;4.45;3.05;;;24.50;82.40;25.30;100734.00;;;;5010057;28;20198;-60
2023/08/15 08:00:14;;;;;;;5.50;3.60;;;24.50;82.10;25.30;100727.00;;;;5010069;28;20318;-59
2023/08/15 08:02:41;;;;;;;3.83;3.10;;;24.60;82.20;25.40;100732.00;;;;5010068;28;20206;-59
2023/08/15 08:05:07;;;;;;;3.42;3.13;;;24.60;81.70;25.40;100726.00;;;;5009820;28;20271;-60
2023/08/15 08:07:37;;;;;;;5.72;3.47;;;24.60;81.40;25.40;100740.00;;;;5011880;28;20725;-60
2023/08/15 08:10:03;;;;;;;3.92;2.90;;;24.70;81.40;25.40;100741.00;;;;5010354;28;20604;-61
2023/08/15 08:12:30;;;;;;;3.78;3.03;;;24.70;82.10;25.50;100733.00;;;;5008555;28;20207;-60
2023/08/15 08:14:55;;;;;;;3.53;3.08;;;24.70;81.10;25.50;100733.00;;;;5008865;28;20248;-60
2023/08/15 08:17:21;;;;;;;4.15;3.10;;;24.70;81.00;25.50;100741.00;;;;5009929;28;20191;-60
2023/08/15 08:19:47;;;;;;;4.32;3.30;;;24.70;80.90;25.50;100741.00;;;;5009918;28;20191;-60
2023/08/15 08:22:14;;;;;;;8.80;3.20;;;24.70;80.70;25.50;100732.00;;;;5009015;28;20247;-61
2023/08/15 08:24:40;;;;;;;6.13;3.58;;;24.70;80.80;25.50;100746.00;;;;5008158;28;20218;-63
2023/08/15 08:27:06;;;;;;;3.95;2.90;;;24.70;81.10;25.50;100748.00;;;;5009729;28;20207;-63
2023/08/15 08:29:31;;;;;;;6.88;3.03;;;24.70;80.90;25.50;100759.00;;;;5009846;28;20175;-64
2023/08/15 08:31:57;;;;;;;3.97;3.20;;;24.80;80.90;25.50;100762.00;;;;5009548;28;20203;-62
2023/08/15 08:34:23;;;;;;;4.00;3.13;;;24.80;80.90;25.50;100691.00;;;;5008892;28;20180;-64
2023/08/15 08:36:48;;;;;;;4.90;3.00;;;24.70;80.80;25.50;100759.00;;;;5009460;28;20271;-63
2023/08/15 08:39:14;;;;;;;6.13;3.00;;;24.70;81.00;25.50;100745.00;;;;5009328;28;20184;-62
2023/08/15 08:41:41;;;;;;;4.57;3.00;;;24.70;80.70;25.60;100748.00;;;;5009224;28;20583;-64
2023/08/15 08:44:07;;;;;;;4.72;3.20;;;24.80;81.00;25.60;100752.00;;;;5009672;28;20200;-64
2023/08/15 08:46:34;;;;;;;4.38;3.08;;;24.80;80.80;25.60;100755.00;;;;5007535;28;20188;-63
2023/08/15 08:48:59;;;;;;;6.28;3.20;;;24.80;80.70;25.60;100770.00;;;;5009307;28;20180;-62
2023/08/15 08:51:26;;;;;;;5.55;3.13;;;24.80;80.60;25.60;100762.00;;;;5009403;28;20237;-63
2023/08/15 08:53:52;;;;;;;9.60;3.30;;;24.90;80.50;25.60;100761.00;;;;5009299;28;20191;-60
2023/08/15 08:56:18;;;;;;;4.20;2.88;;;24.80;80.40;25.60;100760.00;;;;5007929;28;20552;-63
2023/08/15 08:58:59;;;;;;;3.70;2.88;;;24.80;80.50;25.60;100771.00;;;;5007734;28;20176;-63
2023/08/15 09:01:25;;;;;;;3.30;3.00;;;24.80;80.40;25.60;100774.00;;;;5005526;28;20571;-63
2023/08/15 09:03:51;;;;;;;9.02;3.85;;;24.90;80.30;25.60;100775.00;;;;5007422;28;20215;-61
2023/08/15 09:06:17;;;;;;;12.65;5.22;;;24.90;80.10;25.60;100753.00;;;;5008022;28;20207;-63
2023/08/15 09:08:42;;;;;;;18.00;8.05;;;24.90;80.10;25.60;100772.00;;;;4974896;28;20182;-63
2023/08/15 09:11:08;;;;;;;21.42;7.90;;;24.90;80.30;25.70;100768.00;;;;5007734;28;20207;-63
2023/08/15 09:13:34;;;;;;;19.80;7.90;;;24.90;80.40;25.70;100774.00;;;;5008710;28;20183;-63
2023/08/15 09:16:03;;;;;;;20.33;7.28;;;24.90;80.30;25.70;100768.00;;;;5008501;28;20394;-63
2023/08/15 09:18:32;;;;;;;16.63;7.63;;;25.00;81.10;25.70;100784.00;;;;5007542;28;20769;-63
2023/08/15 09:20:58;;;;;;;20.73;7.50;;;25.00;80.10;25.70;100779.00;;;;5007114;28;20558;-63
2023/08/15 09:23:24;;;;;;;17.60;7.05;;;25.00;80.00;25.70;100777.00;;;;5008332;28;20206;-63
2023/08/15 09:25:54;;;;;;;15.20;6.90;;;25.00;80.00;25.80;100776.00;;;;5008655;28;20658;-63
2023/08/15 09:28:20;;;;;;;14.32;6.78;;;25.00;80.00;25.80;100771.00;;;;5008100;28;20188;-63
2023/08/15 09:30:52;;;;;;;15.55;6.88;;;25.00;80.00;25.80;100779.00;;;;5008010;28;20610;-63
2023/08/15 09:33:18;;;;;;;13.10;6.60;;;25.00;79.90;25.80;100780.00;;;;5020986;28;20198;-63
2023/08/15 09:35:45;;;;;;;16.83;6.88;;;25.00;79.70;25.80;100784.00;;;;5007271;28;20178;-63
2023/08/15 09:38:11;;;;;;;12.35;6.30;;;25.00;79.70;25.80;100780.00;;;;5008984;28;20187;-64
2023/08/15 09:40:37;;;;;;;14.80;6.32;;;25.00;79.60;25.80;100788.00;;;;4989825;28;20541;-63
2023/08/15 09:43:03;;;;;;;10.38;6.13;;;25.00;79.60;25.80;100801.00;;;;5006570;28;20207;-63
2023/08/15 09:45:29;;;;;;;11.93;6.28;;;25.00;79.60;25.80;100798.00;;;;5008331;28;20187;-63
2023/08/15 09:47:54;;;;;;;11.13;5.97;;;25.10;79.70;25.80;100805.00;;;;5006899;28;20176;-62
2023/08/15 09:50:20;;;;;;;11.50;6.07;;;25.10;80.00;25.80;100810.00;;;;4990952;28;20287;-63
2023/08/15 09:52:47;;;;;;;12.43;5.75;;;25.00;80.10;25.80;100810.00;;;;5007202;28;20282;-62
2023/08/15 09:55:14;;;;;;;13.73;6.65;;;25.00;80.10;25.80;100801.00;;;;5008230;28;20292;-63
2023/08/15 09:57:41;;;;;;;13.82;6.85;;;25.00;80.40;25.80;100804.00;;;;5008740;28;20191;-63
2023/08/15 10:00:12;;;;;;;12.50;6.45;;;25.10;80.70;25.90;100794.00;;;;5009380;28;20598;-61
2023/08/15 10:03:19;;;;;;;13.23;6.90;;;25.10;80.60;25.90;100803.00;;;;5012507;28;20192;-61
2023/08/15 10:05:48;;;;;;;12.95;6.53;;;25.10;80.50;25.90;100804.00;;;;5011131;28;20210;-61
2023/08/15 10:08:13;;;;;;;12.57;6.97;;;25.10;80.30;25.90;100804.00;;;;5013056;28;20172;-61
2023/08/15 10:10:39;;;;;;;11.70;6.40;;;25.10;80.40;25.90;100809.00;;;;5010735;28;20635;-61
2023/08/15 10:13:05;;;;;;;11.35;6.28;;;25.10;80.20;25.90;100810.00;;;;5011712;28;20196;-61
2023/08/15 10:15:31;;;;;;;10.23;6.32;;;25.10;80.20;25.90;100819.00;;;;4983122;28;20255;-62
2023/08/15 10:17:57;;;;;;;10.18;5.97;;;25.20;80.10;25.90;100818.00;;;;5011140;28;20195;-61
2023/08/15 10:20:23;;;;;;;10.95;5.75;;;25.10;80.10;25.90;100811.00;;;;5010473;28;20194;-62
2023/08/15 10:22:52;;;;;;;8.85;5.70;;;25.10;80.10;25.90;100819.00;;;;5011863;28;20583;-62
2023/08/15 10:25:24;;;;;;;9.05;5.93;;;25.20;80.10;25.90;100819.00;;;;5011417;28;20179;-62
2023/08/15 10:27:54;;;;;;;10.57;5.97;;;25.10;80.00;25.90;100820.00;;;;5011834;28;20179;-62
2023/08/15 10:30:42;;;;;;;8.02;5.80;;;25.20;79.90;25.90;100826.00;;;;5018771;28;20801;-62
2023/08/15 10:33:14;;;;;;;9.07;5.13;;;25.10;79.60;25.90;100831.00;;;;5013799;28;20587;-63
2023/08/15 10:35:56;;;;;;;7.55;5.47;;;25.10;79.50;25.90;100836.00;;;;5011708;28;20179;-61
2023/08/15 10:38:26;;;;;;;11.00;5.30;;;25.20;79.60;25.90;100834.00;;;;5011482;28;20202;-61
2023/08/15 10:40:55;;;;;;;6.38;5.00;;;25.20;79.90;25.90;100831.00;;;;5011562;28;20188;-63
2023/08/15 10:43:24;;;;;;;6.80;4.60;;;25.20;79.90;25.90;100829.00;;;;5011088;28;20220;-61
2023/08/15 10:45:52;;;;;;;8.73;4.75;;;25.20;79.60;25.90;100825.00;;;;5011502;28;20259;-62